Destinations Catania-Fontanarossa Airport

Catania-Fontanarossa Airport (LICC / CTA)

Flights to Catania-Fontanarossa Airport

Flight number From ETE Dispatch
SPY-2238 EGFF Cardiff International Airport 03:35
SPY-2480 EGPH Edinburgh Airport 03:35
SPY-4122 LIRN Naples International Airport 01:15

Flights from Catania-Fontanarossa Airport

Flight number To ETE Dispatch
SPY-2239 EGFF Cardiff International Airport 03:35
SPY-2481 EGPH Edinburgh Airport 03:35
SPY-4123 LIRN Naples International Airport 01:15
About

Catania-Fontanarossa Airport facts

Catania-Fontanarossa Airport is located in Catania at an elevation of 11.9 meters or 39 feet.

Currently, Speedy Airlines serves 6 flights to and from Catania-Fontanarossa Airport.

Detailed airport info

Route map

Weather

Current weather

METAR

METAR

Metar data retrieved Sunday, 21 July 2024 at 19:55 UTC

LICC 211920Z 08004KT CAVOK 29/20 Q1009
Wind Temperature
4 kt 29c